sensor_id;sensor_type;location;lat;lon;timestamp;temperature;humidity
55313;DHT22;46892;45.668;11.756;2023-04-27T00:02:02;11.00;76.60
55313;DHT22;46892;45.668;11.756;2023-04-27T00:04:28;10.90;75.70
55313;DHT22;46892;45.668;11.756;2023-04-27T00:06:53;10.90;75.80
55313;DHT22;46892;45.668;11.756;2023-04-27T00:09:19;10.80;75.50
55313;DHT22;46892;45.668;11.756;2023-04-27T00:11:45;10.80;75.40
55313;DHT22;46892;45.668;11.756;2023-04-27T00:14:10;10.80;75.00
55313;DHT22;46892;45.668;11.756;2023-04-27T00:16:36;10.80;74.50
55313;DHT22;46892;45.668;11.756;2023-04-27T00:19:02;10.80;74.10
55313;DHT22;46892;45.668;11.756;2023-04-27T00:21:27;10.80;75.60
55313;DHT22;46892;45.668;11.756;2023-04-27T00:23:53;10.80;76.00
55313;DHT22;46892;45.668;11.756;2023-04-27T00:26:19;10.80;76.00
55313;DHT22;46892;45.668;11.756;2023-04-27T00:28:46;10.80;76.00
55313;DHT22;46892;45.668;11.756;2023-04-27T00:31:12;10.80;75.50
55313;DHT22;46892;45.668;11.756;2023-04-27T00:33:38;10.80;75.20
55313;DHT22;46892;45.668;11.756;2023-04-27T00:36:03;10.70;75.30
55313;DHT22;46892;45.668;11.756;2023-04-27T00:38:29;10.70;75.60
55313;DHT22;46892;45.668;11.756;2023-04-27T00:41:05;10.60;75.70
55313;DHT22;46892;45.668;11.756;2023-04-27T00:43:32;10.60;75.60
55313;DHT22;46892;45.668;11.756;2023-04-27T00:45:58;10.60;75.60
55313;DHT22;46892;45.668;11.756;2023-04-27T00:48:25;10.60;75.60
55313;DHT22;46892;45.668;11.756;2023-04-27T00:50:51;10.70;75.90
55313;DHT22;46892;45.668;11.756;2023-04-27T00:53:17;10.70;75.90
55313;DHT22;46892;45.668;11.756;2023-04-27T00:55:43;10.70;75.50
55313;DHT22;46892;45.668;11.756;2023-04-27T00:58:09;10.90;74.80
55313;DHT22;46892;45.668;11.756;2023-04-27T01:00:35;11.00;73.80
55313;DHT22;46892;45.668;11.756;2023-04-27T01:03:01;11.10;75.30
55313;DHT22;46892;45.668;11.756;2023-04-27T01:05:29;10.90;75.60
55313;DHT22;46892;45.668;11.756;2023-04-27T01:07:55;10.90;75.50
55313;DHT22;46892;45.668;11.756;2023-04-27T01:10:20;10.90;75.30
55313;DHT22;46892;45.668;11.756;2023-04-27T01:12:46;11.00;75.50
55313;DHT22;46892;45.668;11.756;2023-04-27T01:15:12;10.80;77.10
55313;DHT22;46892;45.668;11.756;2023-04-27T01:17:37;10.70;77.20
55313;DHT22;46892;45.668;11.756;2023-04-27T01:20:04;10.80;77.20
55313;DHT22;46892;45.668;11.756;2023-04-27T01:22:31;10.80;76.10
55313;DHT22;46892;45.668;11.756;2023-04-27T01:24:57;10.80;76.50
55313;DHT22;46892;45.668;11.756;2023-04-27T01:27:23;10.60;76.60
55313;DHT22;46892;45.668;11.756;2023-04-27T01:29:49;10.40;77.10
55313;DHT22;46892;45.668;11.756;2023-04-27T01:32:15;10.30;77.30
55313;DHT22;46892;45.668;11.756;2023-04-27T01:34:40;10.30;76.60
55313;DHT22;46892;45.668;11.756;2023-04-27T01:37:06;10.40;76.30
55313;DHT22;46892;45.668;11.756;2023-04-27T01:39:32;10.20;76.90
55313;DHT22;46892;45.668;11.756;2023-04-27T01:41:57;10.10;77.40
55313;DHT22;46892;45.668;11.756;2023-04-27T01:44:23;10.10;77.80
55313;DHT22;46892;45.668;11.756;2023-04-27T01:46:49;10.10;77.80
55313;DHT22;46892;45.668;11.756;2023-04-27T01:49:15;10.10;78.30
55313;DHT22;46892;45.668;11.756;2023-04-27T01:51:41;10.20;77.70
55313;DHT22;46892;45.668;11.756;2023-04-27T01:54:07;10.10;78.00
55313;DHT22;46892;45.668;11.756;2023-04-27T01:56:32;10.20;77.30
55313;DHT22;46892;45.668;11.756;2023-04-27T01:58:58;10.30;77.20
55313;DHT22;46892;45.668;11.756;2023-04-27T02:01:24;10.30;77.40
55313;DHT22;46892;45.668;11.756;2023-04-27T02:03:49;10.30;78.20
55313;DHT22;46892;45.668;11.756;2023-04-27T02:06:15;10.30;77.60
55313;DHT22;46892;45.668;11.756;2023-04-27T02:08:41;10.30;77.40
55313;DHT22;46892;45.668;11.756;2023-04-27T02:11:06;10.30;77.50
55313;DHT22;46892;45.668;11.756;2023-04-27T02:13:32;10.00;78.60
55313;DHT22;46892;45.668;11.756;2023-04-27T02:15:57;10.00;78.90
55313;DHT22;46892;45.668;11.756;2023-04-27T02:18:26;10.00;78.90
55313;DHT22;46892;45.668;11.756;2023-04-27T02:20:52;10.00;78.20
55313;DHT22;46892;45.668;11.756;2023-04-27T02:23:18;9.90;78.40
55313;DHT22;46892;45.668;11.756;2023-04-27T02:25:43;9.90;78.80
55313;DHT22;46892;45.668;11.756;2023-04-27T02:28:11;9.90;79.40
55313;DHT22;46892;45.668;11.756;2023-04-27T02:30:38;10.00;79.10
55313;DHT22;46892;45.668;11.756;2023-04-27T02:33:04;9.90;79.00
55313;DHT22;46892;45.668;11.756;2023-04-27T02:35:29;10.00;79.30
55313;DHT22;46892;45.668;11.756;2023-04-27T02:37:57;9.90;79.20
55313;DHT22;46892;45.668;11.756;2023-04-27T02:40:23;9.90;79.40
55313;DHT22;46892;45.668;11.756;2023-04-27T02:42:49;9.90;79.10
55313;DHT22;46892;45.668;11.756;2023-04-27T02:45:15;9.90;79.00
55313;DHT22;46892;45.668;11.756;2023-04-27T02:47:41;9.90;78.80
55313;DHT22;46892;45.668;11.756;2023-04-27T02:50:07;10.00;78.40
55313;DHT22;46892;45.668;11.756;2023-04-27T02:52:33;10.00;78.70
55313;DHT22;46892;45.668;11.756;2023-04-27T02:54:58;10.00;78.20
55313;DHT22;46892;45.668;11.756;2023-04-27T02:57:24;9.90;78.30
55313;DHT22;46892;45.668;11.756;2023-04-27T02:59:50;9.80;79.40
55313;DHT22;46892;45.668;11.756;2023-04-27T03:02:15;9.90;79.80
55313;DHT22;46892;45.668;11.756;2023-04-27T03:04:41;9.90;79.90
55313;DHT22;46892;45.668;11.756;2023-04-27T03:07:07;10.00;78.60
55313;DHT22;46892;45.668;11.756;2023-04-27T03:09:33;10.20;79.90
55313;DHT22;46892;45.668;11.756;2023-04-27T03:11:59;10.20;78.20
55313;DHT22;46892;45.668;11.756;2023-04-27T03:14:24;10.10;78.50
55313;DHT22;46892;45.668;11.756;2023-04-27T03:16:50;10.20;78.70
55313;DHT22;46892;45.668;11.756;2023-04-27T03:19:16;10.20;79.00
55313;DHT22;46892;45.668;11.756;2023-04-27T03:21:42;10.00;79.10
55313;DHT22;46892;45.668;11.756;2023-04-27T03:24:07;9.90;79.60
55313;DHT22;46892;45.668;11.756;2023-04-27T03:26:33;9.90;79.00
55313;DHT22;46892;45.668;11.756;2023-04-27T03:28:59;9.90;79.00
55313;DHT22;46892;45.668;11.756;2023-04-27T03:31:25;9.80;79.20
55313;DHT22;46892;45.668;11.756;2023-04-27T03:33:51;9.90;79.10
55313;DHT22;46892;45.668;11.756;2023-04-27T03:36:16;9.90;79.90
55313;DHT22;46892;45.668;11.756;2023-04-27T03:38:42;9.90;79.60
55313;DHT22;46892;45.668;11.756;2023-04-27T03:41:08;9.80;79.90
55313;DHT22;46892;45.668;11.756;2023-04-27T03:43:33;9.80;79.90
55313;DHT22;46892;45.668;11.756;2023-04-27T03:45:59;9.80;79.40
55313;DHT22;46892;45.668;11.756;2023-04-27T03:48:25;9.80;79.10
55313;DHT22;46892;45.668;11.756;2023-04-27T03:50:50;9.80;80.50
55313;DHT22;46892;45.668;11.756;2023-04-27T03:53:16;9.90;80.20
55313;DHT22;46892;45.668;11.756;2023-04-27T03:55:43;10.00;79.30
55313;DHT22;46892;45.668;11.756;2023-04-27T03:58:09;10.00;79.20
55313;DHT22;46892;45.668;11.756;2023-04-27T04:00:38;10.00;79.50
55313;DHT22;46892;45.668;11.756;2023-04-27T04:03:05;9.90;79.30
55313;DHT22;46892;45.668;11.756;2023-04-27T04:05:31;9.80;79.80
55313;DHT22;46892;45.668;11.756;2023-04-27T04:07:57;9.70;80.50
55313;DHT22;46892;45.668;11.756;2023-04-27T04:10:23;9.70;80.80
55313;DHT22;46892;45.668;11.756;2023-04-27T04:12:49;9.70;81.50
55313;DHT22;46892;45.668;11.756;2023-04-27T04:15:16;9.80;81.00
55313;DHT22;46892;45.668;11.756;2023-04-27T04:17:41;9.70;81.10
55313;DHT22;46892;45.668;11.756;2023-04-27T04:20:08;9.80;80.40
55313;DHT22;46892;45.668;11.756;2023-04-27T04:22:35;9.80;80.90
55313;DHT22;46892;45.668;11.756;2023-04-27T04:25:01;9.80;80.40
55313;DHT22;46892;45.668;11.756;2023-04-27T04:27:27;9.80;81.60
55313;DHT22;46892;45.668;11.756;2023-04-27T04:29:52;9.70;80.90
55313;DHT22;46892;45.668;11.756;2023-04-27T04:32:18;9.70;80.80
55313;DHT22;46892;45.668;11.756;2023-04-27T04:34:53;9.70;81.40
55313;DHT22;46892;45.668;11.756;2023-04-27T04:37:19;9.80;81.50
55313;DHT22;46892;45.668;11.756;2023-04-27T04:39:44;9.80;82.20
55313;DHT22;46892;45.668;11.756;2023-04-27T04:42:10;9.80;81.40
55313;DHT22;46892;45.668;11.756;2023-04-27T04:44:36;9.90;80.80
55313;DHT22;46892;45.668;11.756;2023-04-27T04:47:03;9.90;81.00
55313;DHT22;46892;45.668;11.756;2023-04-27T04:49:29;10.00;80.50
55313;DHT22;46892;45.668;11.756;2023-04-27T04:51:55;10.00;80.40
55313;DHT22;46892;45.668;11.756;2023-04-27T04:54:20;10.10;80.50
55313;DHT22;46892;45.668;11.756;2023-04-27T04:56:46;10.30;81.00
55313;DHT22;46892;45.668;11.756;2023-04-27T04:59:12;10.40;81.20
55313;DHT22;46892;45.668;11.756;2023-04-27T05:01:37;10.80;80.90
55313;DHT22;46892;45.668;11.756;2023-04-27T05:04:03;11.50;79.80
55313;DHT22;46892;45.668;11.756;2023-04-27T05:06:29;12.30;77.50
55313;DHT22;46892;45.668;11.756;2023-04-27T05:08:54;13.10;74.20
55313;DHT22;46892;45.668;11.756;2023-04-27T05:11:20;13.50;72.60
55313;DHT22;46892;45.668;11.756;2023-04-27T05:13:46;14.20;70.70
55313;DHT22;46892;45.668;11.756;2023-04-27T05:16:12;14.50;69.30
55313;DHT22;46892;45.668;11.756;2023-04-27T05:18:38;15.30;66.00
55313;DHT22;46892;45.668;11.756;2023-04-27T05:21:03;15.80;63.40
55313;DHT22;46892;45.668;11.756;2023-04-27T05:23:29;15.70;62.60
55313;DHT22;46892;45.668;11.756;2023-04-27T05:25:55;15.00;64.90
55313;DHT22;46892;45.668;11.756;2023-04-27T05:28:21;15.00;64.60
55313;DHT22;46892;45.668;11.756;2023-04-27T05:30:46;15.30;64.20
55313;DHT22;46892;45.668;11.756;2023-04-27T05:33:12;15.70;62.60
55313;DHT22;46892;45.668;11.756;2023-04-27T05:35:38;16.10;62.00
55313;DHT22;46892;45.668;11.756;2023-04-27T05:38:03;16.60;61.60
55313;DHT22;46892;45.668;11.756;2023-04-27T05:40:29;16.70;59.90
55313;DHT22;46892;45.668;11.756;2023-04-27T05:42:55;16.20;61.20
55313;DHT22;46892;45.668;11.756;2023-04-27T05:45:21;16.10;61.70
55313;DHT22;46892;45.668;11.756;2023-04-27T05:47:47;16.30;62.10
55313;DHT22;46892;45.668;11.756;2023-04-27T05:50:12;16.30;61.00
55313;DHT22;46892;45.668;11.756;2023-04-27T05:52:38;16.60;61.00
55313;DHT22;46892;45.668;11.756;2023-04-27T05:55:05;16.50;60.10
55313;DHT22;46892;45.668;11.756;2023-04-27T05:57:31;16.50;59.70
55313;DHT22;46892;45.668;11.756;2023-04-27T05:59:57;16.70;59.40
55313;DHT22;46892;45.668;11.756;2023-04-27T06:02:23;16.80;59.30
55313;DHT22;46892;45.668;11.756;2023-04-27T06:04:48;17.20;61.00
55313;DHT22;46892;45.668;11.756;2023-04-27T06:07:14;17.50;57.60
55313;DHT22;46892;45.668;11.756;2023-04-27T06:09:41;17.90;59.40
55313;DHT22;46892;45.668;11.756;2023-04-27T06:12:07;18.10;55.50
55313;DHT22;46892;45.668;11.756;2023-04-27T06:14:34;18.30;56.70
55313;DHT22;46892;45.668;11.756;2023-04-27T06:17:01;18.50;52.80
55313;DHT22;46892;45.668;11.756;2023-04-27T06:19:27;18.80;53.10
55313;DHT22;46892;45.668;11.756;2023-04-27T06:21:53;19.10;55.00
55313;DHT22;46892;45.668;11.756;2023-04-27T06:24:19;19.50;51.30
55313;DHT22;46892;45.668;11.756;2023-04-27T06:26:45;19.70;51.10
55313;DHT22;46892;45.668;11.756;2023-04-27T06:29:11;19.70;50.20
55313;DHT22;46892;45.668;11.756;2023-04-27T06:31:36;19.80;50.80
55313;DHT22;46892;45.668;11.756;2023-04-27T06:34:02;19.80;49.20
55313;DHT22;46892;45.668;11.756;2023-04-27T06:36:28;19.70;51.40
55313;DHT22;46892;45.668;11.756;2023-04-27T06:38:54;19.60;50.90
55313;DHT22;46892;45.668;11.756;2023-04-27T06:41:24;19.50;51.90
55313;DHT22;46892;45.668;11.756;2023-04-27T06:43:51;19.50;50.70
55313;DHT22;46892;45.668;11.756;2023-04-27T06:46:17;19.50;52.40
55313;DHT22;46892;45.668;11.756;2023-04-27T06:48:43;19.60;52.30
55313;DHT22;46892;45.668;11.756;2023-04-27T06:51:08;19.50;49.70
55313;DHT22;46892;45.668;11.756;2023-04-27T06:53:34;19.40;51.40
55313;DHT22;46892;45.668;11.756;2023-04-27T06:56:00;19.10;49.80
55313;DHT22;46892;45.668;11.756;2023-04-27T06:58:27;18.80;51.00
55313;DHT22;46892;45.668;11.756;2023-04-27T07:00:52;18.70;51.80
55313;DHT22;46892;45.668;11.756;2023-04-27T07:03:19;18.60;51.00
55313;DHT22;46892;45.668;11.756;2023-04-27T07:05:45;18.40;51.40
55313;DHT22;46892;45.668;11.756;2023-04-27T07:08:11;18.20;51.30
55313;DHT22;46892;45.668;11.756;2023-04-27T07:10:37;17.90;52.70
55313;DHT22;46892;45.668;11.756;2023-04-27T07:13:03;17.90;54.20
55313;DHT22;46892;45.668;11.756;2023-04-27T07:15:30;17.70;51.20
55313;DHT22;46892;45.668;11.756;2023-04-27T07:17:56;17.90;51.90
55313;DHT22;46892;45.668;11.756;2023-04-27T07:20:22;18.20;53.30
55313;DHT22;46892;45.668;11.756;2023-04-27T07:22:48;18.40;51.30
55313;DHT22;46892;45.668;11.756;2023-04-27T07:25:14;18.60;50.00
55313;DHT22;46892;45.668;11.756;2023-04-27T07:27:40;18.70;50.50
55313;DHT22;46892;45.668;11.756;2023-04-27T07:30:06;18.80;51.00
55313;DHT22;46892;45.668;11.756;2023-04-27T07:32:35;18.80;49.30
55313;DHT22;46892;45.668;11.756;2023-04-27T07:35:01;19.00;48.80
55313;DHT22;46892;45.668;11.756;2023-04-27T07:37:28;19.20;47.90
55313;DHT22;46892;45.668;11.756;2023-04-27T07:39:54;19.30;48.00
55313;DHT22;46892;45.668;11.756;2023-04-27T07:42:20;19.40;45.50
55313;DHT22;46892;45.668;11.756;2023-04-27T07:44:49;19.60;48.90
55313;DHT22;46892;45.668;11.756;2023-04-27T07:47:15;19.80;47.70
55313;DHT22;46892;45.668;11.756;2023-04-27T07:49:44;20.00;47.40
55313;DHT22;46892;45.668;11.756;2023-04-27T07:52:11;20.10;45.40
55313;DHT22;46892;45.668;11.756;2023-04-27T07:54:37;20.10;45.30
55313;DHT22;46892;45.668;11.756;2023-04-27T07:57:10;20.10;46.70
55313;DHT22;46892;45.668;11.756;2023-04-27T07:59:38;20.10;47.50
55313;DHT22;46892;45.668;11.756;2023-04-27T08:02:04;20.00;47.10
55313;DHT22;46892;45.668;11.756;2023-04-27T08:04:30;19.60;43.90
55313;DHT22;46892;45.668;11.756;2023-04-27T08:06:56;19.40;46.30
55313;DHT22;46892;45.668;11.756;2023-04-27T08:09:21;19.20;47.40
55313;DHT22;46892;45.668;11.756;2023-04-27T08:11:47;19.00;46.60
55313;DHT22;46892;45.668;11.756;2023-04-27T08:14:13;19.00;53.00
55313;DHT22;46892;45.668;11.756;2023-04-27T08:16:42;19.20;50.90
55313;DHT22;46892;45.668;11.756;2023-04-27T08:19:09;19.30;49.10
55313;DHT22;46892;45.668;11.756;2023-04-27T08:21:36;19.30;48.50
55313;DHT22;46892;45.668;11.756;2023-04-27T08:24:03;19.30;47.90
55313;DHT22;46892;45.668;11.756;2023-04-27T08:26:29;19.40;46.60
55313;DHT22;46892;45.668;11.756;2023-04-27T08:28:55;19.30;46.30
55313;DHT22;46892;45.668;11.756;2023-04-27T08:31:22;19.50;46.10
55313;DHT22;46892;45.668;11.756;2023-04-27T08:33:48;19.60;48.20
55313;DHT22;46892;45.668;11.756;2023-04-27T08:36:14;19.40;46.20
55313;DHT22;46892;45.668;11.756;2023-04-27T08:38:39;19.30;44.60
55313;DHT22;46892;45.668;11.756;2023-04-27T08:41:05;19.30;44.10
55313;DHT22;46892;45.668;11.756;2023-04-27T08:43:34;19.40;48.20
55313;DHT22;46892;45.668;11.756;2023-04-27T08:46:01;19.30;46.40
55313;DHT22;46892;45.668;11.756;2023-04-27T08:48:27;19.40;49.60
55313;DHT22;46892;45.668;11.756;2023-04-27T08:50:55;19.50;48.20
55313;DHT22;46892;45.668;11.756;2023-04-27T08:53:21;19.60;46.10
55313;DHT22;46892;45.668;11.756;2023-04-27T08:55:49;19.60;48.80
55313;DHT22;46892;45.668;11.756;2023-04-27T08:58:14;19.70;46.80
55313;DHT22;46892;45.668;11.756;2023-04-27T09:00:41;19.80;45.30
55313;DHT22;46892;45.668;11.756;2023-04-27T09:03:24;19.80;45.10
55313;DHT22;46892;45.668;11.756;2023-04-27T09:05:50;19.80;46.00
55313;DHT22;46892;45.668;11.756;2023-04-27T09:08:15;19.90;45.30
55313;DHT22;46892;45.668;11.756;2023-04-27T09:10:49;19.90;42.90
55313;DHT22;46892;45.668;11.756;2023-04-27T09:13:16;19.80;37.60
55313;DHT22;46892;45.668;11.756;2023-04-27T09:15:43;19.60;41.30
55313;DHT22;46892;45.668;11.756;2023-04-27T09:18:20;19.60;43.40
55313;DHT22;46892;45.668;11.756;2023-04-27T09:20:48;19.50;43.60
55313;DHT22;46892;45.668;11.756;2023-04-27T09:23:31;19.50;44.90
55313;DHT22;46892;45.668;11.756;2023-04-27T09:25:58;19.30;42.20
55313;DHT22;46892;45.668;11.756;2023-04-27T09:28:26;19.00;45.40
55313;DHT22;46892;45.668;11.756;2023-04-27T09:30:57;18.80;46.50
55313;DHT22;46892;45.668;11.756;2023-04-27T09:33:27;18.60;43.00
55313;DHT22;46892;45.668;11.756;2023-04-27T09:35:54;18.60;49.40
55313;DHT22;46892;45.668;11.756;2023-04-27T09:38:21;18.70;42.10
55313;DHT22;46892;45.668;11.756;2023-04-27T09:40:48;18.60;41.90
55313;DHT22;46892;45.668;11.756;2023-04-27T09:43:14;18.70;45.10
55313;DHT22;46892;45.668;11.756;2023-04-27T09:45:40;18.70;45.40
55313;DHT22;46892;45.668;11.756;2023-04-27T09:48:06;18.80;48.50
55313;DHT22;46892;45.668;11.756;2023-04-27T09:50:41;18.90;41.70
55313;DHT22;46892;45.668;11.756;2023-04-27T09:53:33;19.00;49.90
55313;DHT22;46892;45.668;11.756;2023-04-27T10:01:56;19.60;45.30
55313;DHT22;46892;45.668;11.756;2023-04-27T10:07:21;19.30;42.30
55313;DHT22;46892;45.668;11.756;2023-04-27T10:09:48;19.00;40.10
55313;DHT22;46892;45.668;11.756;2023-04-27T10:12:26;18.80;41.50
55313;DHT22;46892;45.668;11.756;2023-04-27T10:17:18;18.90;46.30
55313;DHT22;46892;45.668;11.756;2023-04-27T10:19:54;19.00;46.10
55313;DHT22;46892;45.668;11.756;2023-04-27T10:22:20;19.10;42.50
55313;DHT22;46892;45.668;11.756;2023-04-27T10:24:48;19.20;40.00
55313;DHT22;46892;45.668;11.756;2023-04-27T10:27:19;19.20;42.90
55313;DHT22;46892;45.668;11.756;2023-04-27T10:29:46;19.20;42.50
55313;DHT22;46892;45.668;11.756;2023-04-27T10:32:21;19.30;45.60
55313;DHT22;46892;45.668;11.756;2023-04-27T10:34:50;19.30;47.00
55313;DHT22;46892;45.668;11.756;2023-04-27T10:37:17;19.30;42.00
55313;DHT22;46892;45.668;11.756;2023-04-27T10:39:49;19.40;42.90
55313;DHT22;46892;45.668;11.756;2023-04-27T10:42:25;19.50;46.60
55313;DHT22;46892;45.668;11.756;2023-04-27T10:44:56;19.50;48.40
55313;DHT22;46892;45.668;11.756;2023-04-27T10:47:22;19.50;43.10
55313;DHT22;46892;45.668;11.756;2023-04-27T10:49:52;19.40;44.50
55313;DHT22;46892;45.668;11.756;2023-04-27T10:52:18;19.50;43.30
55313;DHT22;46892;45.668;11.756;2023-04-27T10:54:45;19.50;45.00
55313;DHT22;46892;45.668;11.756;2023-04-27T10:57:10;19.50;41.70
55313;DHT22;46892;45.668;11.756;2023-04-27T10:59:50;19.50;43.70
55313;DHT22;46892;45.668;11.756;2023-04-27T11:02:23;19.60;44.90
55313;DHT22;46892;45.668;11.756;2023-04-27T11:04:49;19.60;42.80
55313;DHT22;46892;45.668;11.756;2023-04-27T11:07:26;19.70;43.30
55313;DHT22;46892;45.668;11.756;2023-04-27T11:09:52;19.40;39.50
55313;DHT22;46892;45.668;11.756;2023-04-27T11:12:18;19.30;43.70
55313;DHT22;46892;45.668;11.756;2023-04-27T11:14:44;19.40;43.20
55313;DHT22;46892;45.668;11.756;2023-04-27T11:17:10;19.50;43.40
55313;DHT22;46892;45.668;11.756;2023-04-27T11:19:47;19.60;44.20
55313;DHT22;46892;45.668;11.756;2023-04-27T11:22:14;19.70;42.00
55313;DHT22;46892;45.668;11.756;2023-04-27T11:24:51;19.70;35.10
55313;DHT22;46892;45.668;11.756;2023-04-27T11:27:17;19.70;41.40
55313;DHT22;46892;45.668;11.756;2023-04-27T11:29:43;19.70;40.80
55313;DHT22;46892;45.668;11.756;2023-04-27T11:32:22;19.70;42.90
55313;DHT22;46892;45.668;11.756;2023-04-27T11:34:52;19.70;36.90
55313;DHT22;46892;45.668;11.756;2023-04-27T11:37:22;19.70;42.70
55313;DHT22;46892;45.668;11.756;2023-04-27T11:39:49;19.70;43.10
55313;DHT22;46892;45.668;11.756;2023-04-27T11:44:53;19.80;41.10
55313;DHT22;46892;45.668;11.756;2023-04-27T11:47:20;19.90;45.50
55313;DHT22;46892;45.668;11.756;2023-04-27T11:49:51;20.00;44.40
55313;DHT22;46892;45.668;11.756;2023-04-27T11:52:20;20.00;46.30
55313;DHT22;46892;45.668;11.756;2023-04-27T11:54:51;20.00;45.40
55313;DHT22;46892;45.668;11.756;2023-04-27T11:57:22;20.10;45.80
55313;DHT22;46892;45.668;11.756;2023-04-27T11:59:49;20.00;39.90
55313;DHT22;46892;45.668;11.756;2023-04-27T12:02:15;20.00;41.70
55313;DHT22;46892;45.668;11.756;2023-04-27T12:04:41;19.90;41.90
55313;DHT22;46892;45.668;11.756;2023-04-27T12:07:07;19.90;42.40
55313;DHT22;46892;45.668;11.756;2023-04-27T12:09:33;20.00;43.60
55313;DHT22;46892;45.668;11.756;2023-04-27T12:11:58;20.00;40.00
55313;DHT22;46892;45.668;11.756;2023-04-27T12:14:24;20.10;42.00
55313;DHT22;46892;45.668;11.756;2023-04-27T12:16:50;20.00;42.10
55313;DHT22;46892;45.668;11.756;2023-04-27T12:19:16;20.10;43.70
55313;DHT22;46892;45.668;11.756;2023-04-27T12:21:42;20.20;41.70
55313;DHT22;46892;45.668;11.756;2023-04-27T12:24:08;20.30;44.50
55313;DHT22;46892;45.668;11.756;2023-04-27T12:26:33;20.30;43.10
55313;DHT22;46892;45.668;11.756;2023-04-27T12:29:00;20.40;45.80
55313;DHT22;46892;45.668;11.756;2023-04-27T12:31:28;20.40;41.00
55313;DHT22;46892;45.668;11.756;2023-04-27T12:33:54;20.30;39.40
55313;DHT22;46892;45.668;11.756;2023-04-27T12:36:19;20.30;36.40
55313;DHT22;46892;45.668;11.756;2023-04-27T12:38:45;20.30;39.40
55313;DHT22;46892;45.668;11.756;2023-04-27T12:41:11;20.40;42.10
55313;DHT22;46892;45.668;11.756;2023-04-27T12:43:37;20.40;39.30
55313;DHT22;46892;45.668;11.756;2023-04-27T12:46:04;20.50;43.70
55313;DHT22;46892;45.668;11.756;2023-04-27T12:48:30;20.60;44.70
55313;DHT22;46892;45.668;11.756;2023-04-27T12:50:56;20.70;41.70
55313;DHT22;46892;45.668;11.756;2023-04-27T12:53:22;20.70;44.30
55313;DHT22;46892;45.668;11.756;2023-04-27T12:55:47;20.70;43.60
55313;DHT22;46892;45.668;11.756;2023-04-27T12:58:13;20.80;40.50
55313;DHT22;46892;45.668;11.756;2023-04-27T13:00:38;20.80;41.50
55313;DHT22;46892;45.668;11.756;2023-04-27T13:03:05;20.80;42.80
55313;DHT22;46892;45.668;11.756;2023-04-27T13:05:31;20.60;42.20
55313;DHT22;46892;45.668;11.756;2023-04-27T13:07:56;20.60;46.00
55313;DHT22;46892;45.668;11.756;2023-04-27T13:10:22;20.60;45.40
55313;DHT22;46892;45.668;11.756;2023-04-27T13:12:48;20.70;43.60
55313;DHT22;46892;45.668;11.756;2023-04-27T13:15:14;20.70;44.70
55313;DHT22;46892;45.668;11.756;2023-04-27T13:17:39;20.80;44.10
55313;DHT22;46892;45.668;11.756;2023-04-27T13:20:06;20.80;47.60
55313;DHT22;46892;45.668;11.756;2023-04-27T13:22:33;20.90;45.30
55313;DHT22;46892;45.668;11.756;2023-04-27T13:24:58;20.90;40.00
55313;DHT22;46892;45.668;11.756;2023-04-27T13:27:24;21.00;44.80
55313;DHT22;46892;45.668;11.756;2023-04-27T13:29:52;21.00;45.30
55313;DHT22;46892;45.668;11.756;2023-04-27T13:32:18;21.00;46.30
55313;DHT22;46892;45.668;11.756;2023-04-27T13:34:44;21.10;47.40
55313;DHT22;46892;45.668;11.756;2023-04-27T13:37:10;20.80;44.30
55313;DHT22;46892;45.668;11.756;2023-04-27T13:39:35;20.50;42.60
55313;DHT22;46892;45.668;11.756;2023-04-27T13:42:02;20.50;45.10
55313;DHT22;46892;45.668;11.756;2023-04-27T13:44:28;20.40;46.80
55313;DHT22;46892;45.668;11.756;2023-04-27T13:46:53;20.30;45.40
55313;DHT22;46892;45.668;11.756;2023-04-27T13:49:19;20.30;46.40
55313;DHT22;46892;45.668;11.756;2023-04-27T13:51:44;20.30;45.70
55313;DHT22;46892;45.668;11.756;2023-04-27T13:54:11;20.40;46.50
55313;DHT22;46892;45.668;11.756;2023-04-27T13:56:36;20.40;47.40
55313;DHT22;46892;45.668;11.756;2023-04-27T13:59:02;20.50;46.20
55313;DHT22;46892;45.668;11.756;2023-04-27T14:01:28;20.60;46.40
55313;DHT22;46892;45.668;11.756;2023-04-27T14:03:54;20.70;48.80
55313;DHT22;46892;45.668;11.756;2023-04-27T14:06:20;20.70;45.80
55313;DHT22;46892;45.668;11.756;2023-04-27T14:08:46;20.70;45.90
55313;DHT22;46892;45.668;11.756;2023-04-27T14:11:12;20.80;48.00
55313;DHT22;46892;45.668;11.756;2023-04-27T14:13:38;20.80;44.80
55313;DHT22;46892;45.668;11.756;2023-04-27T14:16:04;20.80;43.60
55313;DHT22;46892;45.668;11.756;2023-04-27T14:18:29;20.70;43.50
55313;DHT22;46892;45.668;11.756;2023-04-27T14:20:55;20.50;45.20
55313;DHT22;46892;45.668;11.756;2023-04-27T14:23:21;20.40;45.50
55313;DHT22;46892;45.668;11.756;2023-04-27T14:25:47;20.50;47.60
55313;DHT22;46892;45.668;11.756;2023-04-27T14:28:12;20.50;46.30
55313;DHT22;46892;45.668;11.756;2023-04-27T14:30:39;20.60;45.00
55313;DHT22;46892;45.668;11.756;2023-04-27T14:33:05;20.50;42.50
55313;DHT22;46892;45.668;11.756;2023-04-27T14:35:33;20.50;41.30
55313;DHT22;46892;45.668;11.756;2023-04-27T14:37:59;20.40;42.10
55313;DHT22;46892;45.668;11.756;2023-04-27T14:40:30;20.50;45.80
55313;DHT22;46892;45.668;11.756;2023-04-27T14:42:55;20.40;46.70
55313;DHT22;46892;45.668;11.756;2023-04-27T14:45:21;20.40;45.60
55313;DHT22;46892;45.668;11.756;2023-04-27T14:47:47;20.30;45.30
55313;DHT22;46892;45.668;11.756;2023-04-27T14:50:13;20.20;42.80
55313;DHT22;46892;45.668;11.756;2023-04-27T14:52:39;20.20;47.00
55313;DHT22;46892;45.668;11.756;2023-04-27T14:55:05;20.10;45.40
55313;DHT22;46892;45.668;11.756;2023-04-27T14:57:31;20.10;46.60
55313;DHT22;46892;45.668;11.756;2023-04-27T14:59:57;19.90;45.40
55313;DHT22;46892;45.668;11.756;2023-04-27T15:02:23;19.80;50.40
55313;DHT22;46892;45.668;11.756;2023-04-27T15:04:49;19.80;49.20
55313;DHT22;46892;45.668;11.756;2023-04-27T15:07:14;19.90;48.30
55313;DHT22;46892;45.668;11.756;2023-04-27T15:09:40;19.90;46.10
55313;DHT22;46892;45.668;11.756;2023-04-27T15:12:06;20.00;46.90
55313;DHT22;46892;45.668;11.756;2023-04-27T15:14:32;20.00;46.60
55313;DHT22;46892;45.668;11.756;2023-04-27T15:16:58;20.00;47.20
55313;DHT22;46892;45.668;11.756;2023-04-27T15:19:24;20.00;45.60
55313;DHT22;46892;45.668;11.756;2023-04-27T15:21:50;19.90;47.10
55313;DHT22;46892;45.668;11.756;2023-04-27T15:24:16;19.90;46.20
55313;DHT22;46892;45.668;11.756;2023-04-27T15:26:41;19.80;48.50
55313;DHT22;46892;45.668;11.756;2023-04-27T15:29:07;19.70;48.40